Weather at Dryden Regional Airport

Public forecast

Using degrees Celsius for public forecast. Weather courtesy of forecast.io.

Current aviation weather report (METAR) for Dryden Regional Airport

Retrieved 2020/12/03 09:00 UTC (28 minutes ago):

CYHD 030900Z AUTO 26008KT 9SM CLR M06/M07 A2993 RMK SLP162

Aviation forecast (TAF) for Dryden Regional Airport

Retrieved 2020/12/03 08:48 UTC (40 minutes ago):

TAF CYHD 030746Z 0308/0320 25008KT P6SM FEW150 PROB30 0308/0314 4SM BR BKN003 FM031700 27008KT P6SM FEW020 RMK FCST BASED ON AUTO OBS NXT FCST BY 031400Z